sensor_id;sensor_type;location;lat;lon;timestamp;temperature;humidity
71672;DHT22;67659;45.554;11.812;2023-05-10T00:01:26;24.10;75.20
71672;DHT22;67659;45.554;11.812;2023-05-10T00:03:51;24.10;75.10
71672;DHT22;67659;45.554;11.812;2023-05-10T00:06:17;24.10;75.00
71672;DHT22;67659;45.554;11.812;2023-05-10T00:08:44;24.10;74.90
71672;DHT22;67659;45.554;11.812;2023-05-10T00:11:11;24.10;74.80
71672;DHT22;67659;45.554;11.812;2023-05-10T00:13:37;24.10;74.90
71672;DHT22;67659;45.554;11.812;2023-05-10T00:16:02;24.10;74.80
71672;DHT22;67659;45.554;11.812;2023-05-10T00:18:28;24.10;74.90
71672;DHT22;67659;45.554;11.812;2023-05-10T00:20:54;24.10;74.80
71672;DHT22;67659;45.554;11.812;2023-05-10T00:23:20;24.10;75.10
71672;DHT22;67659;45.554;11.812;2023-05-10T00:25:46;24.00;74.80
71672;DHT22;67659;45.554;11.812;2023-05-10T00:28:12;24.00;74.90
71672;DHT22;67659;45.554;11.812;2023-05-10T00:30:38;24.20;74.80
71672;DHT22;67659;45.554;11.812;2023-05-10T00:33:04;24.10;74.80
71672;DHT22;67659;45.554;11.812;2023-05-10T00:35:30;24.10;74.60
71672;DHT22;67659;45.554;11.812;2023-05-10T00:37:56;24.10;74.60
71672;DHT22;67659;45.554;11.812;2023-05-10T00:40:23;24.00;74.90
71672;DHT22;67659;45.554;11.812;2023-05-10T00:42:48;24.10;74.70
71672;DHT22;67659;45.554;11.812;2023-05-10T00:45:14;24.10;74.80
71672;DHT22;67659;45.554;11.812;2023-05-10T00:47:40;24.10;74.70
71672;DHT22;67659;45.554;11.812;2023-05-10T00:50:07;24.00;74.70
71672;DHT22;67659;45.554;11.812;2023-05-10T00:52:34;24.00;74.70
71672;DHT22;67659;45.554;11.812;2023-05-10T00:55:00;24.10;74.60
71672;DHT22;67659;45.554;11.812;2023-05-10T00:57:27;24.00;74.70
71672;DHT22;67659;45.554;11.812;2023-05-10T00:59:53;24.10;74.60
71672;DHT22;67659;45.554;11.812;2023-05-10T01:02:19;24.00;74.60
71672;DHT22;67659;45.554;11.812;2023-05-10T01:04:45;24.00;74.40
71672;DHT22;67659;45.554;11.812;2023-05-10T01:07:11;24.10;74.50
71672;DHT22;67659;45.554;11.812;2023-05-10T01:09:37;24.00;74.60
71672;DHT22;67659;45.554;11.812;2023-05-10T01:12:04;24.00;74.60
71672;DHT22;67659;45.554;11.812;2023-05-10T01:14:32;24.00;74.50
71672;DHT22;67659;45.554;11.812;2023-05-10T01:16:59;24.00;74.30
71672;DHT22;67659;45.554;11.812;2023-05-10T01:19:28;24.10;74.70
71672;DHT22;67659;45.554;11.812;2023-05-10T01:22:10;23.90;74.50
71672;DHT22;67659;45.554;11.812;2023-05-10T01:25:02;24.00;74.30
71672;DHT22;67659;45.554;11.812;2023-05-10T01:30:42;24.00;74.30
71672;DHT22;67659;45.554;11.812;2023-05-10T01:35:55;24.10;74.20
71672;DHT22;67659;45.554;11.812;2023-05-10T01:38:33;24.10;74.40
71672;DHT22;67659;45.554;11.812;2023-05-10T01:41:28;23.90;74.50
71672;DHT22;67659;45.554;11.812;2023-05-10T01:46:39;24.00;74.30
71672;DHT22;67659;45.554;11.812;2023-05-10T01:49:16;24.00;74.30
71672;DHT22;67659;45.554;11.812;2023-05-10T01:51:48;24.00;74.10
71672;DHT22;67659;45.554;11.812;2023-05-10T01:54:19;23.90;74.10
71672;DHT22;67659;45.554;11.812;2023-05-10T01:56:49;24.00;73.90
71672;DHT22;67659;45.554;11.812;2023-05-10T01:59:18;24.00;74.00
71672;DHT22;67659;45.554;11.812;2023-05-10T02:01:46;24.00;74.40
71672;DHT22;67659;45.554;11.812;2023-05-10T02:04:15;24.00;74.20
71672;DHT22;67659;45.554;11.812;2023-05-10T02:06:43;24.00;74.10
71672;DHT22;67659;45.554;11.812;2023-05-10T02:09:10;23.90;74.10
71672;DHT22;67659;45.554;11.812;2023-05-10T02:11:39;23.90;74.20
71672;DHT22;67659;45.554;11.812;2023-05-10T02:14:07;24.00;74.20
71672;DHT22;67659;45.554;11.812;2023-05-10T02:16:35;23.90;74.10
71672;DHT22;67659;45.554;11.812;2023-05-10T02:19:02;24.00;74.10
71672;DHT22;67659;45.554;11.812;2023-05-10T02:21:29;24.00;74.10
71672;DHT22;67659;45.554;11.812;2023-05-10T02:23:55;24.00;74.10
71672;DHT22;67659;45.554;11.812;2023-05-10T02:26:23;23.90;74.20
71672;DHT22;67659;45.554;11.812;2023-05-10T02:28:52;23.90;74.20
71672;DHT22;67659;45.554;11.812;2023-05-10T02:31:19;23.90;74.10
71672;DHT22;67659;45.554;11.812;2023-05-10T02:33:46;23.90;74.50
71672;DHT22;67659;45.554;11.812;2023-05-10T02:36:12;24.00;73.90
71672;DHT22;67659;45.554;11.812;2023-05-10T02:38:40;23.90;74.10
71672;DHT22;67659;45.554;11.812;2023-05-10T02:41:08;23.90;74.10
71672;DHT22;67659;45.554;11.812;2023-05-10T02:43:35;23.90;74.10
71672;DHT22;67659;45.554;11.812;2023-05-10T02:46:02;24.00;73.80
71672;DHT22;67659;45.554;11.812;2023-05-10T02:48:28;23.90;74.10
71672;DHT22;67659;45.554;11.812;2023-05-10T02:50:57;23.90;74.20
71672;DHT22;67659;45.554;11.812;2023-05-10T02:53:31;23.90;74.10
71672;DHT22;67659;45.554;11.812;2023-05-10T02:56:04;23.90;74.30
71672;DHT22;67659;45.554;11.812;2023-05-10T02:58:32;23.90;73.90
71672;DHT22;67659;45.554;11.812;2023-05-10T03:00:59;23.80;74.00
71672;DHT22;67659;45.554;11.812;2023-05-10T03:03:26;23.90;74.00
71672;DHT22;67659;45.554;11.812;2023-05-10T03:05:51;23.80;74.20
71672;DHT22;67659;45.554;11.812;2023-05-10T03:08:22;23.90;74.10
71672;DHT22;67659;45.554;11.812;2023-05-10T03:10:59;23.90;74.20
71672;DHT22;67659;45.554;11.812;2023-05-10T03:13:49;23.90;73.90
71672;DHT22;67659;45.554;11.812;2023-05-10T03:16:27;23.90;73.80
71672;DHT22;67659;45.554;11.812;2023-05-10T03:19:32;23.80;74.00
71672;DHT22;67659;45.554;11.812;2023-05-10T03:21:50;23.90;74.00
71672;DHT22;67659;45.554;11.812;2023-05-10T03:24:20;23.90;73.80
71672;DHT22;67659;45.554;11.812;2023-05-10T03:26:49;23.90;74.00
71672;DHT22;67659;45.554;11.812;2023-05-10T03:29:16;23.80;74.00
71672;DHT22;67659;45.554;11.812;2023-05-10T03:31:42;23.80;73.80
71672;DHT22;67659;45.554;11.812;2023-05-10T03:34:08;23.90;73.80
71672;DHT22;67659;45.554;11.812;2023-05-10T03:36:34;23.90;73.80
71672;DHT22;67659;45.554;11.812;2023-05-10T03:39:00;23.90;73.90
71672;DHT22;67659;45.554;11.812;2023-05-10T03:41:27;23.80;73.70
71672;DHT22;67659;45.554;11.812;2023-05-10T03:43:54;23.90;73.90
71672;DHT22;67659;45.554;11.812;2023-05-10T03:46:20;23.90;73.70
71672;DHT22;67659;45.554;11.812;2023-05-10T03:49:03;23.90;73.80
71672;DHT22;67659;45.554;11.812;2023-05-10T03:51:30;23.80;74.00
71672;DHT22;67659;45.554;11.812;2023-05-10T03:53:57;23.80;74.00
71672;DHT22;67659;45.554;11.812;2023-05-10T03:56:23;23.80;73.80
71672;DHT22;67659;45.554;11.812;2023-05-10T03:58:48;23.80;74.00
71672;DHT22;67659;45.554;11.812;2023-05-10T04:01:14;23.90;74.00
71672;DHT22;67659;45.554;11.812;2023-05-10T04:03:40;23.80;74.00
71672;DHT22;67659;45.554;11.812;2023-05-10T04:06:06;23.90;74.10
71672;DHT22;67659;45.554;11.812;2023-05-10T04:08:34;23.80;73.90
71672;DHT22;67659;45.554;11.812;2023-05-10T04:11:08;23.80;73.90
71672;DHT22;67659;45.554;11.812;2023-05-10T04:13:35;23.80;74.00
71672;DHT22;67659;45.554;11.812;2023-05-10T04:16:01;23.80;74.00
71672;DHT22;67659;45.554;11.812;2023-05-10T04:18:27;23.80;74.00
71672;DHT22;67659;45.554;11.812;2023-05-10T04:20:53;23.80;74.10
71672;DHT22;67659;45.554;11.812;2023-05-10T04:23:19;23.80;74.00
71672;DHT22;67659;45.554;11.812;2023-05-10T04:25:45;23.80;74.00
71672;DHT22;67659;45.554;11.812;2023-05-10T04:28:11;23.80;74.00
71672;DHT22;67659;45.554;11.812;2023-05-10T04:30:37;23.80;74.10
71672;DHT22;67659;45.554;11.812;2023-05-10T04:33:03;23.70;74.00
71672;DHT22;67659;45.554;11.812;2023-05-10T04:35:29;23.70;74.00
71672;DHT22;67659;45.554;11.812;2023-05-10T04:37:55;23.80;74.00
71672;DHT22;67659;45.554;11.812;2023-05-10T04:40:20;23.80;74.00
71672;DHT22;67659;45.554;11.812;2023-05-10T04:42:47;23.80;74.00
71672;DHT22;67659;45.554;11.812;2023-05-10T04:45:13;23.80;74.00
71672;DHT22;67659;45.554;11.812;2023-05-10T04:47:40;23.90;74.00
71672;DHT22;67659;45.554;11.812;2023-05-10T04:50:07;23.70;74.00
71672;DHT22;67659;45.554;11.812;2023-05-10T04:52:33;23.80;74.10
71672;DHT22;67659;45.554;11.812;2023-05-10T04:54:59;23.80;74.00
71672;DHT22;67659;45.554;11.812;2023-05-10T04:57:25;23.80;74.00
71672;DHT22;67659;45.554;11.812;2023-05-10T04:59:51;23.80;74.30
71672;DHT22;67659;45.554;11.812;2023-05-10T05:02:17;23.80;74.00
71672;DHT22;67659;45.554;11.812;2023-05-10T05:04:43;23.80;74.00
71672;DHT22;67659;45.554;11.812;2023-05-10T05:07:09;23.80;74.10
71672;DHT22;67659;45.554;11.812;2023-05-10T05:09:35;23.80;73.80
71672;DHT22;67659;45.554;11.812;2023-05-10T05:12:02;23.80;74.10
71672;DHT22;67659;45.554;11.812;2023-05-10T05:14:28;23.80;74.00
71672;DHT22;67659;45.554;11.812;2023-05-10T05:16:54;23.80;73.80
71672;DHT22;67659;45.554;11.812;2023-05-10T05:19:21;23.80;74.20
71672;DHT22;67659;45.554;11.812;2023-05-10T05:21:48;23.80;74.10
71672;DHT22;67659;45.554;11.812;2023-05-10T05:24:14;23.80;74.00
71672;DHT22;67659;45.554;11.812;2023-05-10T05:26:40;23.80;73.90
71672;DHT22;67659;45.554;11.812;2023-05-10T05:29:06;23.80;74.20
71672;DHT22;67659;45.554;11.812;2023-05-10T05:31:32;23.70;73.90
71672;DHT22;67659;45.554;11.812;2023-05-10T05:33:58;23.80;74.10
71672;DHT22;67659;45.554;11.812;2023-05-10T05:36:24;23.70;74.10
71672;DHT22;67659;45.554;11.812;2023-05-10T05:38:50;23.80;74.10
71672;DHT22;67659;45.554;11.812;2023-05-10T05:41:17;23.70;74.30
71672;DHT22;67659;45.554;11.812;2023-05-10T05:43:43;23.80;74.10
71672;DHT22;67659;45.554;11.812;2023-05-10T05:46:09;23.90;74.20
71672;DHT22;67659;45.554;11.812;2023-05-10T05:48:35;23.80;74.20
71672;DHT22;67659;45.554;11.812;2023-05-10T05:51:01;23.80;74.00
71672;DHT22;67659;45.554;11.812;2023-05-10T05:53:27;23.80;74.20
71672;DHT22;67659;45.554;11.812;2023-05-10T05:55:54;23.80;74.30
71672;DHT22;67659;45.554;11.812;2023-05-10T05:58:25;23.90;74.30
71672;DHT22;67659;45.554;11.812;2023-05-10T06:00:52;23.80;74.50
71672;DHT22;67659;45.554;11.812;2023-05-10T06:03:18;23.80;74.10
71672;DHT22;67659;45.554;11.812;2023-05-10T06:05:44;23.80;74.40
71672;DHT22;67659;45.554;11.812;2023-05-10T06:08:11;23.80;74.30
71672;DHT22;67659;45.554;11.812;2023-05-10T06:10:37;23.80;74.40
71672;DHT22;67659;45.554;11.812;2023-05-10T06:13:03;23.80;74.50
71672;DHT22;67659;45.554;11.812;2023-05-10T06:15:29;23.80;74.60
71672;DHT22;67659;45.554;11.812;2023-05-10T06:17:55;23.80;74.50
71672;DHT22;67659;45.554;11.812;2023-05-10T06:20:21;23.90;74.70
71672;DHT22;67659;45.554;11.812;2023-05-10T06:22:47;23.80;74.70
71672;DHT22;67659;45.554;11.812;2023-05-10T06:25:13;23.80;74.60
71672;DHT22;67659;45.554;11.812;2023-05-10T06:27:40;23.80;74.80
71672;DHT22;67659;45.554;11.812;2023-05-10T06:30:06;23.80;74.60
71672;DHT22;67659;45.554;11.812;2023-05-10T06:32:33;23.80;74.70
71672;DHT22;67659;45.554;11.812;2023-05-10T06:34:59;23.80;74.40
71672;DHT22;67659;45.554;11.812;2023-05-10T06:37:26;23.80;74.70
71672;DHT22;67659;45.554;11.812;2023-05-10T06:39:53;23.90;74.60
71672;DHT22;67659;45.554;11.812;2023-05-10T06:42:19;23.80;74.70
71672;DHT22;67659;45.554;11.812;2023-05-10T06:44:45;23.80;74.70
71672;DHT22;67659;45.554;11.812;2023-05-10T06:47:11;23.90;74.90
71672;DHT22;67659;45.554;11.812;2023-05-10T06:49:36;23.80;74.90
71672;DHT22;67659;45.554;11.812;2023-05-10T06:52:03;23.80;75.00
71672;DHT22;67659;45.554;11.812;2023-05-10T06:54:29;23.80;74.80
71672;DHT22;67659;45.554;11.812;2023-05-10T06:56:55;23.80;74.80
71672;DHT22;67659;45.554;11.812;2023-05-10T06:59:21;23.90;75.00
71672;DHT22;67659;45.554;11.812;2023-05-10T07:01:48;23.80;74.70
71672;DHT22;67659;45.554;11.812;2023-05-10T07:04:14;23.90;74.90
71672;DHT22;67659;45.554;11.812;2023-05-10T07:06:40;23.80;75.00
71672;DHT22;67659;45.554;11.812;2023-05-10T07:09:06;23.80;74.90
71672;DHT22;67659;45.554;11.812;2023-05-10T07:11:33;23.80;74.80
71672;DHT22;67659;45.554;11.812;2023-05-10T07:13:59;23.80;75.00
71672;DHT22;67659;45.554;11.812;2023-05-10T07:16:25;23.80;75.10
71672;DHT22;67659;45.554;11.812;2023-05-10T07:18:51;23.80;75.00
71672;DHT22;67659;45.554;11.812;2023-05-10T07:21:19;23.80;75.20
71672;DHT22;67659;45.554;11.812;2023-05-10T07:23:45;23.80;75.00
71672;DHT22;67659;45.554;11.812;2023-05-10T07:26:11;23.80;74.80
71672;DHT22;67659;45.554;11.812;2023-05-10T07:28:37;23.80;74.80
71672;DHT22;67659;45.554;11.812;2023-05-10T07:31:03;23.80;75.20
71672;DHT22;67659;45.554;11.812;2023-05-10T07:33:29;23.80;75.00
71672;DHT22;67659;45.554;11.812;2023-05-10T07:35:55;23.80;75.30
71672;DHT22;67659;45.554;11.812;2023-05-10T07:38:22;23.80;75.40
71672;DHT22;67659;45.554;11.812;2023-05-10T07:40:48;23.80;75.20
71672;DHT22;67659;45.554;11.812;2023-05-10T07:43:14;23.80;75.20
71672;DHT22;67659;45.554;11.812;2023-05-10T07:45:40;23.80;75.00
71672;DHT22;67659;45.554;11.812;2023-05-10T07:48:06;23.80;75.10
71672;DHT22;67659;45.554;11.812;2023-05-10T07:50:32;23.80;75.20
71672;DHT22;67659;45.554;11.812;2023-05-10T07:52:58;23.80;75.40
71672;DHT22;67659;45.554;11.812;2023-05-10T07:55:24;23.80;75.50
71672;DHT22;67659;45.554;11.812;2023-05-10T07:57:50;23.80;75.40
71672;DHT22;67659;45.554;11.812;2023-05-10T08:00:29;23.70;75.30
71672;DHT22;67659;45.554;11.812;2023-05-10T08:02:55;23.80;75.40
71672;DHT22;67659;45.554;11.812;2023-05-10T08:05:21;23.80;75.50
71672;DHT22;67659;45.554;11.812;2023-05-10T08:07:47;23.80;75.50
71672;DHT22;67659;45.554;11.812;2023-05-10T08:10:13;23.80;75.40
71672;DHT22;67659;45.554;11.812;2023-05-10T08:12:39;23.80;75.50
71672;DHT22;67659;45.554;11.812;2023-05-10T08:15:06;23.80;75.50
71672;DHT22;67659;45.554;11.812;2023-05-10T08:17:32;23.90;75.60
71672;DHT22;67659;45.554;11.812;2023-05-10T08:19:58;23.80;75.50
71672;DHT22;67659;45.554;11.812;2023-05-10T08:22:25;23.80;75.60
71672;DHT22;67659;45.554;11.812;2023-05-10T08:24:51;23.80;75.50
71672;DHT22;67659;45.554;11.812;2023-05-10T08:27:17;23.80;75.60
71672;DHT22;67659;45.554;11.812;2023-05-10T08:29:43;23.80;75.60
71672;DHT22;67659;45.554;11.812;2023-05-10T08:32:09;23.80;75.50
71672;DHT22;67659;45.554;11.812;2023-05-10T08:34:36;23.80;75.50
71672;DHT22;67659;45.554;11.812;2023-05-10T08:37:02;23.80;75.50
71672;DHT22;67659;45.554;11.812;2023-05-10T08:39:29;23.80;75.70
71672;DHT22;67659;45.554;11.812;2023-05-10T08:42:04;23.80;75.30
71672;DHT22;67659;45.554;11.812;2023-05-10T08:44:32;23.90;75.70
71672;DHT22;67659;45.554;11.812;2023-05-10T08:46:59;23.80;75.50
71672;DHT22;67659;45.554;11.812;2023-05-10T08:49:30;23.80;75.60
71672;DHT22;67659;45.554;11.812;2023-05-10T08:51:58;23.80;75.50
71672;DHT22;67659;45.554;11.812;2023-05-10T08:54:35;23.80;75.70
71672;DHT22;67659;45.554;11.812;2023-05-10T08:57:02;23.90;75.60
71672;DHT22;67659;45.554;11.812;2023-05-10T08:59:28;23.80;75.50
71672;DHT22;67659;45.554;11.812;2023-05-10T09:01:58;23.80;75.70
71672;DHT22;67659;45.554;11.812;2023-05-10T09:04:24;23.80;75.80
71672;DHT22;67659;45.554;11.812;2023-05-10T09:06:51;23.80;75.70
71672;DHT22;67659;45.554;11.812;2023-05-10T09:09:18;23.80;75.90
71672;DHT22;67659;45.554;11.812;2023-05-10T09:11:45;23.80;75.60
71672;DHT22;67659;45.554;11.812;2023-05-10T09:14:12;23.70;75.80
71672;DHT22;67659;45.554;11.812;2023-05-10T09:16:40;23.80;75.70
71672;DHT22;67659;45.554;11.812;2023-05-10T09:19:07;23.70;75.80
71672;DHT22;67659;45.554;11.812;2023-05-10T09:21:36;23.80;75.70
71672;DHT22;67659;45.554;11.812;2023-05-10T09:24:05;23.80;75.70
71672;DHT22;67659;45.554;11.812;2023-05-10T09:26:31;23.80;75.70
71672;DHT22;67659;45.554;11.812;2023-05-10T09:28:59;23.80;75.80
71672;DHT22;67659;45.554;11.812;2023-05-10T09:31:43;23.80;75.90
71672;DHT22;67659;45.554;11.812;2023-05-10T09:34:15;23.90;76.00
71672;DHT22;67659;45.554;11.812;2023-05-10T09:36:52;23.80;76.00
71672;DHT22;67659;45.554;11.812;2023-05-10T09:39:19;23.80;76.10
71672;DHT22;67659;45.554;11.812;2023-05-10T09:41:45;23.90;76.00
71672;DHT22;67659;45.554;11.812;2023-05-10T09:44:11;23.90;76.10
71672;DHT22;67659;45.554;11.812;2023-05-10T09:46:38;23.90;75.90
71672;DHT22;67659;45.554;11.812;2023-05-10T09:49:05;23.90;76.10
71672;DHT22;67659;45.554;11.812;2023-05-10T09:51:32;23.90;76.40
71672;DHT22;67659;45.554;11.812;2023-05-10T09:54:13;23.80;76.20
71672;DHT22;67659;45.554;11.812;2023-05-10T09:56:39;23.90;76.40
71672;DHT22;67659;45.554;11.812;2023-05-10T09:59:10;23.90;76.30
71672;DHT22;67659;45.554;11.812;2023-05-10T10:01:37;23.90;76.40
71672;DHT22;67659;45.554;11.812;2023-05-10T10:04:04;23.90;76.50
71672;DHT22;67659;45.554;11.812;2023-05-10T10:06:35;23.90;76.70
71672;DHT22;67659;45.554;11.812;2023-05-10T10:09:02;23.90;76.90
71672;DHT22;67659;45.554;11.812;2023-05-10T10:11:28;23.90;76.60
71672;DHT22;67659;45.554;11.812;2023-05-10T10:13:55;23.90;76.70
71672;DHT22;67659;45.554;11.812;2023-05-10T10:16:21;24.00;76.90
71672;DHT22;67659;45.554;11.812;2023-05-10T10:18:48;24.00;76.80
71672;DHT22;67659;45.554;11.812;2023-05-10T10:21:15;23.90;76.80
71672;DHT22;67659;45.554;11.812;2023-05-10T10:23:42;23.90;76.60
71672;DHT22;67659;45.554;11.812;2023-05-10T10:26:10;23.90;76.60
71672;DHT22;67659;45.554;11.812;2023-05-10T10:28:49;24.00;76.90
71672;DHT22;67659;45.554;11.812;2023-05-10T10:31:28;24.00;76.90
71672;DHT22;67659;45.554;11.812;2023-05-10T10:34:05;23.90;76.80
71672;DHT22;67659;45.554;11.812;2023-05-10T10:36:40;24.00;76.70
71672;DHT22;67659;45.554;11.812;2023-05-10T10:39:10;24.00;76.80
71672;DHT22;67659;45.554;11.812;2023-05-10T10:41:39;23.90;76.90
71672;DHT22;67659;45.554;11.812;2023-05-10T10:44:23;24.00;76.90
71672;DHT22;67659;45.554;11.812;2023-05-10T10:47:05;24.00;76.90
71672;DHT22;67659;45.554;11.812;2023-05-10T10:49:44;23.90;76.70
71672;DHT22;67659;45.554;11.812;2023-05-10T10:52:28;24.00;76.80
71672;DHT22;67659;45.554;11.812;2023-05-10T10:55:03;23.90;76.90
71672;DHT22;67659;45.554;11.812;2023-05-10T10:57:44;23.90;77.10
71672;DHT22;67659;45.554;11.812;2023-05-10T11:00:23;23.90;77.10
71672;DHT22;67659;45.554;11.812;2023-05-10T11:02:52;24.00;77.10
71672;DHT22;67659;45.554;11.812;2023-05-10T11:05:25;24.00;77.00
71672;DHT22;67659;45.554;11.812;2023-05-10T11:07:59;24.00;77.00
71672;DHT22;67659;45.554;11.812;2023-05-10T11:10:27;24.00;77.10
71672;DHT22;67659;45.554;11.812;2023-05-10T11:13:03;23.90;76.90
71672;DHT22;67659;45.554;11.812;2023-05-10T11:15:43;23.90;77.00
71672;DHT22;67659;45.554;11.812;2023-05-10T11:18:30;23.90;76.80
71672;DHT22;67659;45.554;11.812;2023-05-10T11:21:00;23.90;77.10
71672;DHT22;67659;45.554;11.812;2023-05-10T11:23:31;23.80;77.10
71672;DHT22;67659;45.554;11.812;2023-05-10T11:25:58;23.90;77.00
71672;DHT22;67659;45.554;11.812;2023-05-10T11:28:24;23.90;77.10
71672;DHT22;67659;45.554;11.812;2023-05-10T11:30:51;23.90;77.00
71672;DHT22;67659;45.554;11.812;2023-05-10T11:33:19;23.90;76.90
71672;DHT22;67659;45.554;11.812;2023-05-10T11:35:45;23.90;77.10
71672;DHT22;67659;45.554;11.812;2023-05-10T11:38:12;23.90;76.80
71672;DHT22;67659;45.554;11.812;2023-05-10T11:40:39;23.90;77.00
71672;DHT22;67659;45.554;11.812;2023-05-10T11:43:06;23.80;76.90
71672;DHT22;67659;45.554;11.812;2023-05-10T11:45:32;23.90;76.70
71672;DHT22;67659;45.554;11.812;2023-05-10T11:48:00;23.90;76.90
71672;DHT22;67659;45.554;11.812;2023-05-10T11:50:26;23.90;76.70
71672;DHT22;67659;45.554;11.812;2023-05-10T11:52:55;23.80;76.90
71672;DHT22;67659;45.554;11.812;2023-05-10T11:55:22;23.90;76.90
71672;DHT22;67659;45.554;11.812;2023-05-10T11:57:54;23.90;76.80
71672;DHT22;67659;45.554;11.812;2023-05-10T12:00:20;23.80;76.70
71672;DHT22;67659;45.554;11.812;2023-05-10T12:02:47;23.90;76.70
71672;DHT22;67659;45.554;11.812;2023-05-10T12:05:23;23.80;76.50
71672;DHT22;67659;45.554;11.812;2023-05-10T12:07:50;23.90;76.70
71672;DHT22;67659;45.554;11.812;2023-05-10T12:10:15;23.80;76.70
71672;DHT22;67659;45.554;11.812;2023-05-10T12:12:45;23.80;76.90
71672;DHT22;67659;45.554;11.812;2023-05-10T12:15:23;23.90;77.00
71672;DHT22;67659;45.554;11.812;2023-05-10T12:17:50;23.90;76.90
71672;DHT22;67659;45.554;11.812;2023-05-10T12:20:18;23.90;76.70
71672;DHT22;67659;45.554;11.812;2023-05-10T12:22:46;23.90;76.70
71672;DHT22;67659;45.554;11.812;2023-05-10T12:25:13;23.90;76.80
71672;DHT22;67659;45.554;11.812;2023-05-10T12:27:39;23.90;76.90
71672;DHT22;67659;45.554;11.812;2023-05-10T12:30:05;23.90;76.90
71672;DHT22;67659;45.554;11.812;2023-05-10T12:32:40;24.00;76.90
71672;DHT22;67659;45.554;11.812;2023-05-10T12:35:06;24.00;76.80
71672;DHT22;67659;45.554;11.812;2023-05-10T12:37:33;24.00;76.60
71672;DHT22;67659;45.554;11.812;2023-05-10T12:40:06;24.00;76.60
71672;DHT22;67659;45.554;11.812;2023-05-10T12:42:34;24.10;76.80
71672;DHT22;67659;45.554;11.812;2023-05-10T12:45:01;24.10;76.60
71672;DHT22;67659;45.554;11.812;2023-05-10T12:47:28;24.20;76.60
71672;DHT22;67659;45.554;11.812;2023-05-10T12:49:54;24.20;76.50
71672;DHT22;67659;45.554;11.812;2023-05-10T12:52:20;24.30;76.60
71672;DHT22;67659;45.554;11.812;2023-05-10T12:54:46;24.30;76.50
71672;DHT22;67659;45.554;11.812;2023-05-10T12:57:13;24.40;76.30
71672;DHT22;67659;45.554;11.812;2023-05-10T12:59:39;24.50;76.10
71672;DHT22;67659;45.554;11.812;2023-05-10T13:02:06;24.60;76.50
71672;DHT22;67659;45.554;11.812;2023-05-10T13:04:32;24.60;75.90
71672;DHT22;67659;45.554;11.812;2023-05-10T13:06:58;24.60;76.00
71672;DHT22;67659;45.554;11.812;2023-05-10T13:09:26;24.70;75.90
71672;DHT22;67659;45.554;11.812;2023-05-10T13:11:52;24.70;75.90
71672;DHT22;67659;45.554;11.812;2023-05-10T13:14:20;24.90;75.50
71672;DHT22;67659;45.554;11.812;2023-05-10T13:16:47;24.90;75.80
71672;DHT22;67659;45.554;11.812;2023-05-10T13:19:15;25.00;75.40
71672;DHT22;67659;45.554;11.812;2023-05-10T13:21:41;25.00;75.30
71672;DHT22;67659;45.554;11.812;2023-05-10T13:24:08;25.00;75.50
71672;DHT22;67659;45.554;11.812;2023-05-10T13:26:34;25.10;75.60
71672;DHT22;67659;45.554;11.812;2023-05-10T13:29:00;25.10;75.40
71672;DHT22;67659;45.554;11.812;2023-05-10T13:31:26;25.20;75.10
71672;DHT22;67659;45.554;11.812;2023-05-10T13:33:52;25.10;75.20
71672;DHT22;67659;45.554;11.812;2023-05-10T13:36:18;25.20;75.30
71672;DHT22;67659;45.554;11.812;2023-05-10T13:38:44;25.20;75.20
71672;DHT22;67659;45.554;11.812;2023-05-10T13:41:11;25.30;75.10
71672;DHT22;67659;45.554;11.812;2023-05-10T13:43:37;25.30;74.90
71672;DHT22;67659;45.554;11.812;2023-05-10T13:46:03;25.30;74.80
71672;DHT22;67659;45.554;11.812;2023-05-10T13:48:38;25.40;74.80
71672;DHT22;67659;45.554;11.812;2023-05-10T13:51:05;25.40;75.00
71672;DHT22;67659;45.554;11.812;2023-05-10T13:53:31;25.40;74.70
71672;DHT22;67659;45.554;11.812;2023-05-10T13:56:00;25.50;74.80
71672;DHT22;67659;45.554;11.812;2023-05-10T13:58:27;25.50;74.80
71672;DHT22;67659;45.554;11.812;2023-05-10T14:00:53;25.60;74.70
71672;DHT22;67659;45.554;11.812;2023-05-10T14:03:19;25.60;74.90
71672;DHT22;67659;45.554;11.812;2023-05-10T14:05:45;25.60;74.70
71672;DHT22;67659;45.554;11.812;2023-05-10T14:08:12;25.70;74.70
71672;DHT22;67659;45.554;11.812;2023-05-10T14:10:39;25.80;74.70
71672;DHT22;67659;45.554;11.812;2023-05-10T14:13:05;25.80;74.50
71672;DHT22;67659;45.554;11.812;2023-05-10T14:15:31;25.80;74.50
71672;DHT22;67659;45.554;11.812;2023-05-10T14:17:57;25.80;74.30
71672;DHT22;67659;45.554;11.812;2023-05-10T14:20:23;25.80;74.40
71672;DHT22;67659;45.554;11.812;2023-05-10T14:22:49;25.90;74.40
71672;DHT22;67659;45.554;11.812;2023-05-10T14:25:15;25.90;74.30
71672;DHT22;67659;45.554;11.812;2023-05-10T14:27:41;25.90;74.30
71672;DHT22;67659;45.554;11.812;2023-05-10T14:30:07;25.90;74.10
71672;DHT22;67659;45.554;11.812;2023-05-10T14:32:33;25.90;74.30
71672;DHT22;67659;45.554;11.812;2023-05-10T14:35:02;25.90;74.10
71672;DHT22;67659;45.554;11.812;2023-05-10T14:37:28;26.00;74.20
71672;DHT22;67659;45.554;11.812;2023-05-10T14:39:54;25.90;74.00
71672;DHT22;67659;45.554;11.812;2023-05-10T14:42:19;25.90;73.90
71672;DHT22;67659;45.554;11.812;2023-05-10T14:44:48;25.90;73.90
71672;DHT22;67659;45.554;11.812;2023-05-10T14:47:14;25.90;74.00
71672;DHT22;67659;45.554;11.812;2023-05-10T14:49:40;25.90;73.90
71672;DHT22;67659;45.554;11.812;2023-05-10T14:52:06;26.00;73.90
71672;DHT22;67659;45.554;11.812;2023-05-10T14:54:32;26.00;74.10
71672;DHT22;67659;45.554;11.812;2023-05-10T14:56:59;26.00;74.10
71672;DHT22;67659;45.554;11.812;2023-05-10T14:59:26;26.10;74.10
71672;DHT22;67659;45.554;11.812;2023-05-10T15:01:52;26.10;73.80
71672;DHT22;67659;45.554;11.812;2023-05-10T15:04:18;26.10;73.90
71672;DHT22;67659;45.554;11.812;2023-05-10T15:06:44;26.10;74.00
71672;DHT22;67659;45.554;11.812;2023-05-10T15:09:10;26.10;73.80
71672;DHT22;67659;45.554;11.812;2023-05-10T15:11:36;26.20;73.60
71672;DHT22;67659;45.554;11.812;2023-05-10T15:14:08;26.10;74.00
71672;DHT22;67659;45.554;11.812;2023-05-10T15:16:35;26.20;73.90
71672;DHT22;67659;45.554;11.812;2023-05-10T15:19:11;26.20;73.80
71672;DHT22;67659;45.554;11.812;2023-05-10T15:21:37;26.20;73.80
71672;DHT22;67659;45.554;11.812;2023-05-10T15:24:05;26.20;73.70
71672;DHT22;67659;45.554;11.812;2023-05-10T15:26:31;26.20;73.60
71672;DHT22;67659;45.554;11.812;2023-05-10T15:29:01;26.20;73.70